Time;durP1;ratioP1;P1;durP2;ratioP2;P2;SDS_P1;SDS_P2;PMS_P1;PMS_P2;Temp;Humidity;BMP_temperature;BMP_pressure;BME280_temperature;BME280_humidity;BME280_pressure;Samples;Min_cycle;Max_cycle;Signal;HPM_P1;HPM_P2
2022/12/13 00:07:11;;;;;;;22.52;9.50;;;-6.10;99.90;;;;;;21233719;27;20060;-80
2022/12/13 00:17:12;;;;;;;24.23;8.40;;;-6.30;99.90;;;;;;21182544;27;20458;-81
2022/12/13 00:27:13;;;;;;;22.25;9.52;;;-6.30;99.90;;;;;;21129004;28;20027;-80
2022/12/13 00:37:14;;;;;;;22.40;8.75;;;-6.40;99.90;;;;;;21148160;28;20115;-79
2022/12/13 00:47:14;;;;;;;20.38;8.13;;;-6.50;99.90;;;;;;21147706;28;20039;-80
2022/12/13 00:57:15;;;;;;;16.40;7.70;;;-6.50;99.90;;;;;;21167089;28;20512;-80
2022/12/13 01:07:16;;;;;;;21.90;9.73;;;-6.60;99.90;;;;;;21191645;28;20036;-79
2022/12/13 01:17:17;;;;;;;17.95;8.60;;;-6.60;99.90;;;;;;21163994;28;20028;-81
2022/12/13 01:27:17;;;;;;;17.98;7.40;;;-6.60;99.90;;;;;;21163600;28;20032;-82
2022/12/13 01:37:19;;;;;;;19.42;8.70;;;-6.60;99.90;;;;;;21165726;28;20393;-79
2022/12/13 01:47:43;;;;;;;17.67;7.63;;;-6.60;99.90;;;;;;21160026;28;20043;-80
2022/12/13 01:57:47;;;;;;;17.35;8.35;;;-6.80;99.90;;;;;;21158662;28;20389;-79
2022/12/13 02:07:48;;;;;;;13.52;6.80;;;-6.70;99.90;;;;;;21158450;28;20067;-80
2022/12/13 02:18:00;;;;;;;18.75;7.45;;;-6.70;99.90;;;;;;21174101;28;20099;-79
2022/12/13 02:28:11;;;;;;;13.07;6.57;;;-6.70;99.90;;;;;;21159778;28;20034;-80
2022/12/13 02:38:15;;;;;;;16.08;7.13;;;-6.80;99.90;;;;;;21156504;28;20076;-79
2022/12/13 02:48:25;;;;;;;21.90;7.18;;;-6.90;99.90;;;;;;21212673;22;20510;-78
2022/12/13 02:58:33;;;;;;;17.95;6.93;;;-6.90;99.90;;;;;;21104197;28;20040;-78
2022/12/13 03:08:43;;;;;;;17.38;7.45;;;-6.90;99.90;;;;;;21092629;28;20090;-80
2022/12/13 03:18:45;;;;;;;15.43;7.13;;;-6.90;99.90;;;;;;21092591;28;20025;-82
2022/12/13 03:28:46;;;;;;;14.52;6.57;;;-6.80;99.90;;;;;;21146726;28;20087;-80
2022/12/13 03:38:49;;;;;;;15.13;6.90;;;-6.90;99.90;;;;;;21172342;28;20044;-82
2022/12/13 03:48:50;;;;;;;15.75;7.53;;;-7.00;99.90;;;;;;21172778;28;20055;-80
2022/12/13 03:58:51;;;;;;;16.77;7.05;;;-7.00;99.90;;;;;;21154365;28;20038;-82
2022/12/13 04:08:52;;;;;;;15.70;6.43;;;-7.00;99.90;;;;;;21172602;28;20088;-81
2022/12/13 04:18:52;;;;;;;15.30;6.18;;;-7.10;99.90;;;;;;21172965;28;20114;-81
2022/12/13 04:28:53;;;;;;;12.65;6.18;;;-7.20;99.90;;;;;;21169708;28;20028;-81
2022/12/13 04:38:54;;;;;;;13.63;6.40;;;-7.30;99.90;;;;;;21171286;28;20034;-81
2022/12/13 04:48:55;;;;;;;17.60;6.82;;;-7.30;99.90;;;;;;21103963;28;20028;-79
2022/12/13 04:58:56;;;;;;;15.77;8.18;;;-7.20;99.90;;;;;;21093576;28;20447;-81
2022/12/13 05:08:56;;;;;;;21.13;7.25;;;-7.10;99.90;;;;;;21098096;28;20115;-81
2022/12/13 05:18:57;;;;;;;16.65;7.38;;;-7.30;99.90;;;;;;21160910;28;20036;-81
2022/12/13 05:28:58;;;;;;;13.38;6.88;;;-7.30;99.90;;;;;;21182663;28;20035;-81
2022/12/13 05:38:59;;;;;;;19.25;7.97;;;-7.20;99.90;;;;;;21178782;28;20039;-81
2022/12/13 05:49:00;;;;;;;16.13;7.10;;;-7.20;99.90;;;;;;21171998;28;20027;-79
2022/12/13 05:59:00;;;;;;;12.32;6.80;;;-7.30;99.90;;;;;;21166277;28;20027;-79
2022/12/13 06:09:02;;;;;;;17.90;9.15;;;-7.20;99.90;;;;;;21181905;28;20077;-82
2022/12/13 06:19:03;;;;;;;20.50;6.78;;;-7.10;99.90;;;;;;21184262;28;20028;-81
2022/12/13 06:29:04;;;;;;;17.75;7.80;;;-7.10;99.90;;;;;;21172683;28;20488;-79
2022/12/13 06:39:05;;;;;;;16.60;7.22;;;-7.10;99.90;;;;;;21172950;28;20032;-78
2022/12/13 06:49:06;;;;;;;13.23;6.45;;;-7.00;99.90;;;;;;21155104;28;20387;-82
2022/12/13 06:59:07;;;;;;;15.77;6.97;;;-7.10;99.90;;;;;;21175526;27;20595;-79
2022/12/13 07:09:08;;;;;;;12.18;6.97;;;-7.00;99.90;;;;;;21180070;28;20058;-80
2022/12/13 07:19:10;;;;;;;21.33;6.70;;;-6.50;99.90;;;;;;21178890;28;20050;-82
2022/12/13 07:29:10;;;;;;;16.75;6.75;;;-6.70;99.90;;;;;;21181182;28;20047;-81
2022/12/13 07:39:11;;;;;;;18.52;6.72;;;-6.60;99.90;;;;;;21179814;28;20472;-80
2022/12/13 07:49:13;;;;;;;14.98;7.05;;;-6.50;99.90;;;;;;21173946;28;20088;-80
2022/12/13 07:59:14;;;;;;;13.02;5.97;;;-6.40;99.90;;;;;;21172919;28;20119;-81
2022/12/13 08:09:14;;;;;;;14.57;7.18;;;-6.20;99.90;;;;;;21137619;28;20036;-81
2022/12/13 08:19:15;;;;;;;20.52;8.30;;;-6.00;99.90;;;;;;21156233;28;20028;-81
2022/12/13 08:29:16;;;;;;;15.63;7.30;;;-5.60;99.90;;;;;;21176397;28;20281;-79
2022/12/13 08:39:17;;;;;;;16.27;7.70;;;-5.30;99.90;;;;;;21174982;28;20032;-80
2022/12/13 08:49:18;;;;;;;207.38;73.45;;;-5.20;99.90;;;;;;21195654;22;20044;-79
2022/12/13 08:59:21;;;;;;;20.58;9.63;;;-4.80;99.90;;;;;;21177597;28;20083;-78
2022/12/13 09:09:22;;;;;;;20.70;7.60;;;-4.80;99.90;;;;;;21078813;28;20077;-78
2022/12/13 09:19:25;;;;;;;15.80;7.68;;;-4.50;99.90;;;;;;21145686;28;20103;-78
2022/12/13 09:29:25;;;;;;;18.67;6.95;;;-4.50;99.90;;;;;;21163773;28;20115;-78
2022/12/13 09:39:26;;;;;;;14.02;6.95;;;-4.30;99.90;;;;;;21164487;28;20028;-78
2022/12/13 09:49:27;;;;;;;12.65;6.60;;;-4.30;99.90;;;;;;21157481;28;20031;-78
2022/12/13 09:59:32;;;;;;;14.45;7.20;;;-3.70;99.90;;;;;;21159248;28;20110;-78
2022/12/13 10:09:33;;;;;;;27.55;7.10;;;-3.50;99.90;;;;;;21156105;28;20032;-78
2022/12/13 10:19:42;;;;;;;12.65;5.97;;;-3.40;99.90;;;;;;21175999;28;20053;-78
2022/12/13 10:30:12;;;;;;;15.00;7.03;;;-3.10;99.90;;;;;;21175481;28;20448;-79
2022/12/13 10:40:33;;;;;;;14.00;6.10;;;-2.90;99.90;;;;;;21154669;28;20439;-79
2022/12/13 10:50:34;;;;;;;11.07;6.38;;;-2.80;99.90;;;;;;21172285;28;20038;-78
2022/12/13 11:00:45;;;;;;;13.65;5.95;;;-2.50;99.90;;;;;;21156232;28;20043;-79
2022/12/13 11:10:54;;;;;;;19.42;7.50;;;-2.40;99.90;;;;;;21188837;28;20027;-79
2022/12/13 11:21:01;;;;;;;12.77;6.82;;;-2.60;99.90;;;;;;21161222;28;20054;-80
2022/12/13 11:31:33;;;;;;;15.10;6.75;;;-2.40;99.90;;;;;;21169327;28;20028;-79
2022/12/13 11:41:42;;;;;;;14.55;6.93;;;-2.10;99.90;;;;;;21169604;28;20114;-79
2022/12/13 11:51:49;;;;;;;15.98;7.07;;;-2.20;99.90;;;;;;21149127;28;20553;-80
2022/12/13 12:02:21;;;;;;;16.90;7.90;;;-2.40;99.90;;;;;;21142701;28;20027;-79
2022/12/13 12:12:33;;;;;;;16.60;8.07;;;-2.70;99.90;;;;;;21147560;28;20039;-79
2022/12/13 12:22:50;;;;;;;16.15;7.00;;;-2.30;99.90;;;;;;21150031;28;20049;-79
2022/12/13 12:33:03;;;;;;;18.02;7.70;;;-2.40;99.90;;;;;;21117761;28;20051;-79
2022/12/13 12:43:16;;;;;;;18.95;8.45;;;-2.50;99.90;;;;;;21114259;28;20118;-78
2022/12/13 12:53:31;;;;;;;17.85;8.13;;;-2.40;99.90;;;;;;21096006;28;20397;-78
2022/12/13 13:03:35;;;;;;;21.63;8.65;;;-1.90;99.90;;;;;;21115303;28;20028;-79
2022/12/13 13:13:47;;;;;;;19.27;8.27;;;-2.00;99.90;;;;;;21082479;28;20099;-80
2022/12/13 13:24:04;;;;;;;24.73;8.65;;;-1.70;99.90;;;;;;21107256;28;20024;-78
2022/12/13 13:34:22;;;;;;;56.97;20.08;;;-1.80;99.90;;;;;;21103567;28;20032;-79
2022/12/13 13:44:54;;;;;;;17.52;9.27;;;-1.70;99.90;;;;;;21107468;28;20481;-78
2022/12/13 13:55:32;;;;;;;25.38;9.73;;;-2.10;99.90;;;;;;21193225;28;20052;-79
2022/12/13 14:05:51;;;;;;;20.67;9.32;;;-2.20;99.90;;;;;;21209032;28;20046;-79
2022/12/13 14:16:30;;;;;;;24.10;10.15;;;-2.10;99.90;;;;;;21157366;28;20028;-79
2022/12/13 14:26:52;;;;;;;23.83;10.07;;;-2.00;99.90;;;;;;21147156;28;20031;-78
2022/12/13 14:37:00;;;;;;;29.98;11.23;;;-2.20;99.90;;;;;;21163982;28;20028;-79
2022/12/13 14:57:17;;;;;;;30.08;11.27;;;-2.50;99.90;;;;;;21178229;28;20040;-78
2022/12/13 15:07:27;;;;;;;32.75;12.82;;;-2.50;99.90;;;;;;21158637;28;20081;-80
2022/12/13 15:17:31;;;;;;;27.27;10.63;;;-2.50;99.90;;;;;;21157635;28;20050;-80
2022/12/13 15:27:34;;;;;;;46.00;15.15;;;-2.80;99.90;;;;;;21163766;28;20046;-80
2022/12/13 15:37:36;;;;;;;27.13;11.45;;;-2.90;99.90;;;;;;21161284;28;20031;-79
2022/12/13 15:47:42;;;;;;;42.25;13.88;;;-2.90;99.90;;;;;;21177978;27;20538;-81
2022/12/13 15:57:53;;;;;;;28.98;15.13;;;-2.90;99.90;;;;;;21148017;28;20409;-81
2022/12/13 16:07:56;;;;;;;25.23;11.23;;;-2.80;99.90;;;;;;21163123;28;20038;-80
2022/12/13 16:18:18;;;;;;;30.45;12.20;;;-3.00;99.90;;;;;;21160048;28;20038;-79
2022/12/13 16:28:18;;;;;;;31.50;13.48;;;-3.10;99.90;;;;;;21148323;28;20032;-80
2022/12/13 16:38:19;;;;;;;28.17;11.90;;;-3.00;99.90;;;;;;21134291;28;20406;-81
2022/12/13 16:48:20;;;;;;;29.05;13.05;;;-3.00;99.90;;;;;;21170203;27;20044;-81
2022/12/13 16:58:22;;;;;;;27.08;13.80;;;-3.10;99.90;;;;;;21185415;28;20066;-82
2022/12/13 17:08:23;;;;;;;33.05;14.50;;;-3.20;99.90;;;;;;21157443;28;20081;-81
2022/12/13 17:18:24;;;;;;;33.47;12.73;;;-3.20;99.90;;;;;;21150698;28;20510;-80
2022/12/13 17:28:25;;;;;;;23.88;11.88;;;-3.30;99.90;;;;;;21182314;28;20028;-80
2022/12/13 17:38:26;;;;;;;27.48;13.48;;;-3.30;99.90;;;;;;21117035;28;20486;-80
2022/12/13 17:48:28;;;;;;;32.15;14.18;;;-3.20;99.90;;;;;;21116580;28;20615;-79
2022/12/13 17:58:31;;;;;;;28.88;13.35;;;-3.20;99.90;;;;;;21121022;28;20040;-79
2022/12/13 18:08:36;;;;;;;32.40;14.57;;;-3.30;99.90;;;;;;21109166;28;20028;-79
2022/12/13 18:18:38;;;;;;;34.65;14.77;;;-3.30;99.90;;;;;;21177183;27;20027;-79
2022/12/13 18:28:38;;;;;;;40.25;15.68;;;-3.40;99.90;;;;;;21149224;28;20035;-79
2022/12/13 18:38:41;;;;;;;33.90;14.68;;;-3.50;99.90;;;;;;21184801;28;20436;-79
2022/12/13 18:48:42;;;;;;;37.90;16.35;;;-3.50;99.90;;;;;;21111831;28;20040;-80
2022/12/13 18:58:43;;;;;;;37.47;16.05;;;-3.50;99.90;;;;;;21134153;27;20397;-79
2022/12/13 19:08:47;;;;;;;44.42;17.17;;;-3.50;99.90;;;;;;21165392;28;20049;-80
2022/12/13 19:18:48;;;;;;;37.20;14.77;;;-3.50;99.90;;;;;;21176355;28;20036;-80
2022/12/13 19:28:49;;;;;;;40.10;16.80;;;-3.60;99.90;;;;;;21164367;28;20051;-79
2022/12/13 19:38:50;;;;;;;42.78;16.42;;;-3.60;99.90;;;;;;21176073;28;20477;-83
2022/12/13 19:48:51;;;;;;;35.97;17.77;;;-3.60;99.90;;;;;;21075341;28;20043;-81
2022/12/13 19:58:53;;;;;;;39.97;16.98;;;-3.60;99.90;;;;;;21153996;27;20027;-81
2022/12/13 20:08:53;;;;;;;43.58;17.10;;;-3.70;99.90;;;;;;21229875;27;20092;-82
2022/12/13 20:18:56;;;;;;;45.83;19.10;;;-3.70;99.90;;;;;;21184087;27;20035;-81
2022/12/13 20:28:57;;;;;;;43.33;17.55;;;-3.70;99.90;;;;;;21165370;28;20039;-81
2022/12/13 20:39:00;;;;;;;42.85;18.13;;;-3.60;99.90;;;;;;21152271;28;20032;-82
2022/12/13 20:49:02;;;;;;;47.38;18.85;;;-3.60;99.90;;;;;;21153379;22;20047;-77
2022/12/13 20:59:06;;;;;;;43.80;18.00;;;-3.60;99.90;;;;;;20984978;28;20448;-77
2022/12/13 21:09:08;;;;;;;51.13;20.15;;;-3.60;99.90;;;;;;21043409;28;20061;-78
2022/12/13 21:19:12;;;;;;;47.40;19.17;;;-3.60;99.90;;;;;;21082235;28;20061;-79
2022/12/13 21:29:14;;;;;;;43.28;19.77;;;-3.60;99.90;;;;;;21035175;28;20032;-79
2022/12/13 21:39:26;;;;;;;46.90;18.90;;;-3.50;99.90;;;;;;21028612;28;20158;-78
2022/12/13 21:49:27;;;;;;;51.30;19.30;;;-3.50;99.90;;;;;;21052822;28;20031;-77
2022/12/13 21:59:28;;;;;;;48.92;19.83;;;-3.50;99.90;;;;;;21033417;28;20032;-79
2022/12/13 22:09:29;;;;;;;42.78;19.55;;;-3.50;99.90;;;;;;21032096;28;20070;-77
2022/12/13 22:19:30;;;;;;;44.28;20.50;;;-3.40;99.90;;;;;;21072700;28;20036;-79
2022/12/13 22:29:31;;;;;;;48.65;20.02;;;-3.40;99.90;;;;;;21097427;28;20058;-78
2022/12/13 22:39:32;;;;;;;52.88;21.05;;;-3.40;99.90;;;;;;21093564;28;20036;-78
2022/12/13 22:49:32;;;;;;;49.45;21.65;;;-3.40;99.90;;;;;;21048835;28;20405;-77
2022/12/13 22:59:33;;;;;;;40.88;19.77;;;-3.40;99.90;;;;;;21068041;28;20020;-77
2022/12/13 23:09:34;;;;;;;43.40;19.95;;;-3.40;99.90;;;;;;21094331;28;20028;-79
2022/12/13 23:19:35;;;;;;;52.58;20.45;;;-3.30;99.90;;;;;;21091458;28;20114;-78
2022/12/13 23:29:36;;;;;;;48.85;19.70;;;-3.30;99.90;;;;;;21093095;28;20089;-76
2022/12/13 23:39:37;;;;;;;47.42;20.30;;;-3.30;99.90;;;;;;21092945;28;20056;-78
2022/12/13 23:49:38;;;;;;;56.20;21.25;;;-3.30;99.90;;;;;;21069782;28;20478;-78
2022/12/13 23:59:39;;;;;;;53.50;22.40;;;-3.30;99.90;;;;;;21085582;28;20035;-78
